Time;durP1;ratioP1;P1;durP2;ratioP2;P2;SDS_P1;SDS_P2;PMS_P1;PMS_P2;Temp;Humidity;BMP_temperature;BMP_pressure;BME280_temperature;BME280_humidity;BME280_pressure;Samples;Min_cycle;Max_cycle;Signal;HPM_P1;HPM_P2
2024/01/19 00:00:21;;;;;;;4.63;3.38;;;6.10;80.90;;;;;;6091921;23;20025;-74
2024/01/19 00:02:47;;;;;;;5.03;3.40;;;6.10;81.10;;;;;;6093221;23;20019;-74
2024/01/19 00:05:13;;;;;;;4.47;2.97;;;6.10;81.10;;;;;;6068175;23;20101;-74
2024/01/19 00:07:39;;;;;;;4.97;3.42;;;6.00;81.10;;;;;;6093221;23;20026;-74
2024/01/19 00:10:06;;;;;;;5.03;3.05;;;6.00;80.90;;;;;;6094010;23;20011;-75
2024/01/19 00:12:35;;;;;;;4.97;3.63;;;6.10;80.80;;;;;;6067364;23;20036;-72
2024/01/19 00:15:09;;;;;;;4.97;3.50;;;6.10;80.80;;;;;;6093450;23;20027;-74
2024/01/19 00:17:36;;;;;;;5.25;3.47;;;6.00;80.50;;;;;;6093160;23;20026;-72
2024/01/19 00:20:02;;;;;;;4.43;3.42;;;6.10;80.50;;;;;;6093550;23;20018;-72
2024/01/19 00:22:28;;;;;;;6.10;3.50;;;6.10;80.60;;;;;;6092764;23;20030;-73
2024/01/19 00:24:54;;;;;;;5.45;3.53;;;6.10;80.90;;;;;;6093583;23;20010;-72
2024/01/19 00:27:20;;;;;;;4.47;3.50;;;6.10;80.90;;;;;;6091855;23;20025;-72
2024/01/19 00:29:46;;;;;;;4.78;3.25;;;6.10;80.80;;;;;;6093400;23;20046;-72
2024/01/19 00:32:12;;;;;;;4.82;3.78;;;6.10;80.80;;;;;;6092784;23;20072;-73
2024/01/19 00:34:38;;;;;;;5.22;3.63;;;6.10;81.00;;;;;;6092988;23;20109;-73
2024/01/19 00:37:07;;;;;;;4.30;3.40;;;6.10;81.10;;;;;;6092217;23;20017;-73
2024/01/19 00:39:33;;;;;;;6.65;3.67;;;6.10;81.20;;;;;;6068096;23;20478;-73
2024/01/19 00:41:59;;;;;;;5.50;3.78;;;6.10;81.20;;;;;;6093015;23;20029;-73
2024/01/19 00:44:25;;;;;;;4.90;3.53;;;6.10;81.30;;;;;;6092454;23;20105;-73
2024/01/19 00:46:51;;;;;;;5.70;3.88;;;6.10;81.20;;;;;;6067284;23;20078;-73
2024/01/19 00:49:17;;;;;;;6.05;3.45;;;6.10;81.10;;;;;;6091901;23;20026;-73
2024/01/19 00:51:43;;;;;;;5.47;3.22;;;6.10;81.10;;;;;;6093889;23;20450;-73
2024/01/19 00:54:09;;;;;;;4.80;3.45;;;6.10;81.10;;;;;;6091065;23;20019;-73
2024/01/19 00:56:35;;;;;;;5.38;4.05;;;6.10;81.10;;;;;;6091030;23;20034;-73
2024/01/19 00:59:01;;;;;;;6.53;3.60;;;6.10;81.00;;;;;;6092843;23;20370;-72
2024/01/19 01:01:27;;;;;;;5.75;3.63;;;6.10;81.10;;;;;;6092835;23;20052;-73
2024/01/19 01:03:55;;;;;;;5.90;4.13;;;6.10;81.20;;;;;;6093191;23;20081;-73
2024/01/19 01:06:21;;;;;;;4.97;3.58;;;6.10;81.20;;;;;;6092675;23;20029;-73
2024/01/19 01:08:47;;;;;;;5.65;4.13;;;6.10;81.10;;;;;;6091300;23;20073;-73
2024/01/19 01:11:13;;;;;;;5.43;4.00;;;6.10;81.20;;;;;;6067282;23;20050;-73
2024/01/19 01:13:39;;;;;;;4.80;3.40;;;6.10;81.00;;;;;;6091165;23;20026;-74
2024/01/19 01:16:05;;;;;;;6.78;3.75;;;6.10;80.90;;;;;;6093314;23;20094;-73
2024/01/19 01:18:31;;;;;;;5.55;4.40;;;6.10;80.90;;;;;;6042998;23;20019;-73
2024/01/19 01:20:57;;;;;;;5.75;3.78;;;6.10;80.90;;;;;;6092798;23;20019;-73
2024/01/19 01:23:24;;;;;;;6.60;4.22;;;6.10;80.90;;;;;;6092497;23;20058;-73
2024/01/19 01:25:50;;;;;;;7.10;3.95;;;6.10;81.00;;;;;;6043259;23;20014;-73
2024/01/19 01:28:16;;;;;;;5.78;4.13;;;6.10;80.80;;;;;;6093102;23;20017;-72
2024/01/19 01:30:42;;;;;;;4.93;3.80;;;6.10;80.80;;;;;;6091606;23;20342;-72
2024/01/19 01:33:08;;;;;;;5.38;3.70;;;6.10;81.10;;;;;;6092685;23;20042;-72
2024/01/19 01:35:35;;;;;;;5.97;3.78;;;6.10;80.90;;;;;;6092271;23;20223;-72
2024/01/19 01:38:03;;;;;;;6.22;3.83;;;6.10;80.70;;;;;;6092429;23;20022;-72
2024/01/19 01:40:29;;;;;;;6.85;3.83;;;6.10;80.70;;;;;;6067003;23;20022;-72
2024/01/19 01:42:57;;;;;;;5.15;3.60;;;6.20;80.80;;;;;;6093316;23;20017;-72
2024/01/19 01:45:24;;;;;;;5.15;3.70;;;6.20;81.00;;;;;;6092442;23;20022;-72
2024/01/19 01:47:49;;;;;;;5.10;3.85;;;6.20;81.20;;;;;;6092420;23;20109;-72
2024/01/19 01:50:15;;;;;;;6.40;3.88;;;6.20;81.10;;;;;;6092509;23;20783;-72
2024/01/19 01:52:41;;;;;;;5.38;3.97;;;6.20;81.20;;;;;;6092581;23;20105;-72
2024/01/19 01:55:09;;;;;;;5.80;4.03;;;6.20;81.30;;;;;;6092714;23;20049;-72
2024/01/19 01:57:35;;;;;;;5.35;3.97;;;6.20;81.20;;;;;;6092580;23;20027;-71
2024/01/19 02:00:02;;;;;;;6.20;4.07;;;6.20;81.00;;;;;;6067031;23;20014;-72
2024/01/19 02:02:30;;;;;;;8.43;4.50;;;6.20;81.30;;;;;;6092152;23;20053;-73
2024/01/19 02:04:56;;;;;;;6.40;3.88;;;6.20;81.30;;;;;;6091916;23;20564;-75
2024/01/19 02:07:22;;;;;;;6.43;4.53;;;6.20;81.10;;;;;;6067049;23;20105;-72
2024/01/19 02:09:48;;;;;;;6.85;4.30;;;6.20;81.20;;;;;;6092929;23;20014;-73
2024/01/19 02:12:15;;;;;;;5.40;4.07;;;6.20;81.20;;;;;;6092859;23;20515;-74
2024/01/19 02:14:41;;;;;;;4.82;3.85;;;6.20;81.20;;;;;;6068881;23;20102;-75
2024/01/19 02:17:07;;;;;;;7.05;4.63;;;6.20;81.10;;;;;;6094163;23;20026;-75
2024/01/19 02:19:35;;;;;;;5.03;3.88;;;6.20;80.90;;;;;;6094508;23;20011;-75
2024/01/19 02:22:03;;;;;;;5.90;4.25;;;6.20;80.50;;;;;;6095602;23;20021;-75
2024/01/19 02:24:29;;;;;;;6.25;4.43;;;6.20;80.20;;;;;;6069046;23;20030;-75
2024/01/19 02:26:56;;;;;;;5.63;4.30;;;6.20;80.20;;;;;;6094044;23;20027;-75
2024/01/19 02:29:22;;;;;;;6.40;4.35;;;6.20;80.00;;;;;;6094452;23;20021;-76
2024/01/19 02:31:47;;;;;;;5.32;4.05;;;6.20;79.80;;;;;;6093354;23;20022;-75
2024/01/19 02:34:13;;;;;;;6.40;4.15;;;6.20;79.80;;;;;;6095210;23;20010;-75
2024/01/19 02:36:39;;;;;;;6.53;4.45;;;6.20;79.80;;;;;;6068924;23;20022;-75
2024/01/19 02:39:05;;;;;;;5.68;4.10;;;6.20;79.80;;;;;;6069236;23;20105;-74
2024/01/19 02:41:32;;;;;;;7.85;4.50;;;6.20;79.60;;;;;;6094164;23;20046;-75
2024/01/19 02:43:58;;;;;;;5.53;4.28;;;6.20;79.50;;;;;;6096527;23;20038;-74
2024/01/19 02:46:24;;;;;;;6.65;5.07;;;6.20;79.60;;;;;;6095046;23;20334;-75
2024/01/19 02:48:50;;;;;;;5.55;4.53;;;6.20;79.60;;;;;;6094509;23;20028;-75
2024/01/19 02:51:16;;;;;;;7.25;4.40;;;6.30;79.60;;;;;;6094191;23;20057;-74
2024/01/19 02:53:42;;;;;;;6.85;4.13;;;6.20;79.60;;;;;;6092874;23;20026;-75
2024/01/19 02:56:08;;;;;;;5.25;3.90;;;6.20;79.50;;;;;;6093973;23;20542;-75
2024/01/19 02:58:34;;;;;;;6.40;3.92;;;6.30;79.80;;;;;;6093715;23;20014;-75
2024/01/19 03:01:00;;;;;;;5.32;4.45;;;6.30;79.70;;;;;;6069578;23;20343;-75
2024/01/19 03:03:26;;;;;;;6.47;4.30;;;6.20;79.70;;;;;;6068904;23;20110;-75
2024/01/19 03:05:52;;;;;;;5.88;4.03;;;6.30;79.60;;;;;;6068697;23;20046;-74
2024/01/19 03:08:21;;;;;;;5.30;4.22;;;6.20;79.40;;;;;;6093546;23;20042;-75
2024/01/19 03:10:47;;;;;;;7.93;4.68;;;6.30;79.40;;;;;;6094293;23;20164;-75
2024/01/19 03:13:13;;;;;;;6.43;4.38;;;6.30;79.30;;;;;;6094744;23;20506;-74
2024/01/19 03:15:39;;;;;;;6.10;4.20;;;6.30;79.20;;;;;;6094165;23;20025;-75
2024/01/19 03:18:05;;;;;;;8.65;4.38;;;6.30;79.20;;;;;;6092281;23;20031;-74
2024/01/19 03:20:31;;;;;;;7.50;4.68;;;6.30;79.10;;;;;;6044578;23;20429;-74
2024/01/19 03:22:57;;;;;;;5.57;4.20;;;6.30;79.00;;;;;;6094356;23;20049;-74
2024/01/19 03:25:23;;;;;;;8.07;4.90;;;6.30;78.90;;;;;;6068312;23;20394;-73
2024/01/19 03:27:49;;;;;;;6.47;4.43;;;6.30;78.90;;;;;;6092323;23;20006;-73
2024/01/19 03:30:16;;;;;;;5.80;4.88;;;6.30;78.50;;;;;;6093333;23;20026;-73
2024/01/19 03:32:42;;;;;;;7.03;4.43;;;6.30;78.60;;;;;;6093813;23;20025;-72
2024/01/19 03:35:08;;;;;;;6.10;4.43;;;6.30;78.50;;;;;;6093642;23;20018;-74
2024/01/19 03:37:34;;;;;;;6.30;4.10;;;6.30;78.60;;;;;;6093697;23;20021;-73
2024/01/19 03:40:00;;;;;;;6.50;4.65;;;6.30;79.00;;;;;;6094019;23;20488;-73
2024/01/19 03:42:27;;;;;;;8.07;4.72;;;6.30;79.10;;;;;;6093687;23;20046;-74
2024/01/19 03:44:53;;;;;;;6.50;4.10;;;6.30;79.20;;;;;;6092852;23;20077;-73
2024/01/19 03:47:19;;;;;;;8.25;5.13;;;6.30;79.10;;;;;;6091586;23;20346;-74
2024/01/19 03:49:45;;;;;;;8.68;4.47;;;6.30;79.20;;;;;;6093170;23;20019;-74
2024/01/19 03:52:11;;;;;;;7.43;4.55;;;6.30;79.30;;;;;;6094396;23;20010;-74
2024/01/19 03:54:37;;;;;;;8.18;4.55;;;6.30;79.20;;;;;;6091935;23;20018;-74
2024/01/19 03:57:09;;;;;;;7.43;4.78;;;6.30;79.30;;;;;;6093616;23;20022;-74
2024/01/19 03:59:35;;;;;;;6.68;4.90;;;6.40;79.30;;;;;;6092899;23;20073;-74
2024/01/19 04:02:01;;;;;;;7.38;4.80;;;6.30;79.10;;;;;;6093438;23;20021;-74
2024/01/19 04:04:27;;;;;;;6.70;4.55;;;6.40;79.10;;;;;;6092835;23;20007;-74
2024/01/19 04:06:55;;;;;;;6.75;4.50;;;6.30;78.80;;;;;;6092499;23;20010;-74
2024/01/19 04:09:21;;;;;;;5.93;4.88;;;6.40;78.70;;;;;;6067286;23;20096;-77
2024/01/19 04:11:47;;;;;;;8.40;4.90;;;6.40;78.60;;;;;;6068593;23;20033;-78
2024/01/19 04:14:15;;;;;;;6.07;4.18;;;6.40;78.50;;;;;;6093514;23;20018;-78
2024/01/19 04:16:41;;;;;;;8.88;4.90;;;6.40;78.30;;;;;;6093310;23;20483;-78
2024/01/19 04:19:07;;;;;;;6.85;4.97;;;6.40;78.70;;;;;;6092777;23;20042;-78
2024/01/19 04:21:33;;;;;;;7.70;5.00;;;6.40;78.00;;;;;;6092501;23;20026;-77
2024/01/19 04:23:59;;;;;;;7.55;4.68;;;6.40;77.80;;;;;;6067018;23;20025;-76
2024/01/19 04:26:27;;;;;;;8.63;4.95;;;6.40;77.70;;;;;;6092798;23;20042;-74
2024/01/19 04:28:54;;;;;;;6.45;4.85;;;6.40;77.40;;;;;;6067093;23;20102;-78
2024/01/19 04:31:20;;;;;;;6.15;4.80;;;6.40;77.30;;;;;;6092293;23;20014;-78
2024/01/19 04:33:46;;;;;;;7.13;4.68;;;6.40;77.20;;;;;;6093661;23;20007;-76
2024/01/19 04:36:12;;;;;;;6.78;4.30;;;6.40;77.00;;;;;;6092422;23;20312;-78
2024/01/19 04:38:38;;;;;;;5.30;4.30;;;6.40;76.90;;;;;;6092267;23;20018;-77
2024/01/19 04:41:05;;;;;;;6.45;4.20;;;6.40;77.00;;;;;;6092363;23;20021;-78
2024/01/19 04:43:31;;;;;;;5.50;4.07;;;6.40;77.60;;;;;;6067150;23;20089;-78
2024/01/19 04:45:57;;;;;;;6.40;4.47;;;6.40;77.20;;;;;;6093246;23;20014;-74
2024/01/19 04:48:23;;;;;;;8.52;4.60;;;6.40;77.30;;;;;;6091397;23;20101;-75
2024/01/19 04:50:49;;;;;;;6.90;4.53;;;6.40;77.30;;;;;;6066974;23;20045;-75
2024/01/19 04:53:15;;;;;;;6.35;4.18;;;6.40;77.50;;;;;;6092751;23;20018;-75
2024/01/19 04:55:41;;;;;;;7.80;4.40;;;6.40;77.80;;;;;;6093059;23;20014;-74
2024/01/19 04:58:07;;;;;;;6.75;4.35;;;6.40;77.80;;;;;;6093294;23;20049;-75
2024/01/19 05:00:33;;;;;;;10.43;4.72;;;6.40;78.10;;;;;;6066274;23;20014;-74
2024/01/19 05:03:01;;;;;;;7.72;5.00;;;6.40;78.60;;;;;;6092903;23;20454;-74
2024/01/19 05:05:27;;;;;;;7.88;4.97;;;6.40;79.20;;;;;;6092740;23;20022;-74
2024/01/19 05:07:53;;;;;;;8.55;5.35;;;6.40;79.80;;;;;;6092967;23;20014;-74
2024/01/19 05:10:19;;;;;;;8.95;4.88;;;6.40;80.30;;;;;;6066853;23;20010;-74
2024/01/19 05:12:45;;;;;;;13.68;5.63;;;6.40;80.70;;;;;;6092722;23;20010;-76
2024/01/19 05:15:11;;;;;;;8.45;4.97;;;6.40;81.40;;;;;;6091975;23;20037;-76
2024/01/19 05:17:57;;;;;;;9.05;5.53;;;6.50;82.10;;;;;;6090097;23;20057;-76
2024/01/19 05:20:23;;;;;;;8.40;5.30;;;6.50;82.10;;;;;;6089638;23;20018;-75
2024/01/19 05:22:49;;;;;;;10.68;5.85;;;6.50;82.20;;;;;;6091531;23;20015;-75
2024/01/19 05:25:18;;;;;;;8.27;5.55;;;6.40;81.70;;;;;;6092192;23;20469;-75
2024/01/19 05:27:45;;;;;;;9.73;6.22;;;6.50;81.30;;;;;;6091931;23;20076;-76
2024/01/19 05:30:13;;;;;;;10.88;6.50;;;6.50;81.20;;;;;;6066677;23;20149;-76
2024/01/19 05:32:40;;;;;;;10.10;6.18;;;6.50;81.00;;;;;;6091833;23;20018;-75
2024/01/19 05:35:06;;;;;;;10.57;6.53;;;6.50;80.80;;;;;;6092691;23;20015;-75
2024/01/19 05:37:32;;;;;;;10.88;6.13;;;6.50;80.60;;;;;;6091455;23;20025;-76
2024/01/19 05:39:58;;;;;;;8.30;5.47;;;6.40;80.30;;;;;;6067614;23;20419;-75
2024/01/19 05:42:24;;;;;;;9.10;6.03;;;6.50;80.20;;;;;;6066366;23;20018;-74
2024/01/19 05:44:50;;;;;;;9.80;5.93;;;6.50;80.40;;;;;;6091904;23;20338;-75
2024/01/19 05:47:16;;;;;;;11.00;6.30;;;6.50;80.40;;;;;;6091863;23;20033;-74
2024/01/19 05:49:42;;;;;;;10.65;6.18;;;6.50;80.40;;;;;;6090868;23;20085;-74
2024/01/19 05:52:08;;;;;;;8.77;5.80;;;6.50;80.50;;;;;;6090981;23;20010;-74
2024/01/19 05:54:34;;;;;;;10.52;6.50;;;6.50;80.20;;;;;;6092199;23;20022;-74
2024/01/19 05:57:01;;;;;;;10.27;6.03;;;6.50;80.40;;;;;;6092342;23;20529;-75
2024/01/19 05:59:28;;;;;;;8.48;6.07;;;6.50;80.30;;;;;;6092309;23;20478;-76
2024/01/19 06:01:55;;;;;;;10.38;6.60;;;6.50;80.20;;;;;;6092333;23;20672;-76
2024/01/19 06:04:22;;;;;;;7.47;5.45;;;6.50;80.30;;;;;;6091800;23;20022;-76
2024/01/19 06:06:48;;;;;;;7.25;5.20;;;6.60;80.20;;;;;;6093372;23;20021;-75
2024/01/19 06:09:14;;;;;;;8.85;5.75;;;6.50;80.00;;;;;;6092378;23;20109;-75
2024/01/19 06:11:40;;;;;;;10.32;6.10;;;6.50;80.00;;;;;;6092561;23;20465;-76
2024/01/19 06:14:06;;;;;;;9.32;5.47;;;6.50;79.90;;;;;;6092345;23;20401;-76
2024/01/19 06:16:32;;;;;;;8.93;5.95;;;6.50;79.90;;;;;;6090686;23;20025;-76
2024/01/19 06:18:58;;;;;;;9.10;6.47;;;6.50;79.90;;;;;;6067458;23;20006;-75
2024/01/19 06:21:24;;;;;;;7.97;5.47;;;6.50;79.90;;;;;;6066894;23;20097;-76
2024/01/19 06:23:50;;;;;;;8.20;5.80;;;6.50;79.90;;;;;;6092381;23;20343;-76
2024/01/19 06:26:16;;;;;;;8.80;5.75;;;6.50;79.90;;;;;;6092563;23;20041;-75
2024/01/19 06:28:42;;;;;;;9.15;5.95;;;6.50;79.80;;;;;;6092345;23;20138;-75
2024/01/19 06:31:10;;;;;;;8.48;5.88;;;6.50;79.70;;;;;;6093036;23;20046;-76
2024/01/19 06:33:37;;;;;;;8.30;6.00;;;6.50;79.60;;;;;;6066396;23;20015;-75
2024/01/19 06:36:12;;;;;;;8.93;5.93;;;6.50;79.50;;;;;;6066952;23;20018;-76
2024/01/19 06:38:38;;;;;;;9.60;5.85;;;6.50;79.60;;;;;;6092528;23;20014;-75
2024/01/19 06:41:05;;;;;;;8.43;5.68;;;6.50;79.40;;;;;;6090949;23;20019;-77
2024/01/19 06:43:34;;;;;;;10.80;6.25;;;6.50;79.30;;;;;;6066670;23;20030;-75
2024/01/19 06:46:00;;;;;;;9.98;6.13;;;6.50;79.10;;;;;;6066976;23;20442;-76
2024/01/19 06:48:26;;;;;;;9.77;5.70;;;6.60;79.40;;;;;;6066401;23;20085;-76
2024/01/19 06:50:52;;;;;;;8.45;5.65;;;6.60;79.50;;;;;;6066873;23;20018;-76
2024/01/19 06:53:18;;;;;;;9.60;6.15;;;6.60;79.50;;;;;;6090812;23;20354;-75
2024/01/19 06:55:44;;;;;;;7.90;5.40;;;6.60;79.50;;;;;;6091904;23;20025;-75
2024/01/19 06:58:10;;;;;;;8.85;5.93;;;6.60;79.50;;;;;;6093157;23;20020;-75
2024/01/19 07:00:36;;;;;;;9.30;5.82;;;6.50;79.50;;;;;;6093973;23;20093;-75
2024/01/19 07:03:02;;;;;;;7.80;5.70;;;6.60;79.40;;;;;;6068992;23;20425;-75
2024/01/19 07:05:28;;;;;;;8.75;6.22;;;6.60;79.40;;;;;;6093753;23;20410;-76
2024/01/19 07:07:54;;;;;;;9.20;6.35;;;6.60;79.30;;;;;;6093012;23;20678;-75
2024/01/19 07:10:21;;;;;;;6.63;5.13;;;6.60;79.30;;;;;;6094138;23;20017;-74
2024/01/19 07:12:47;;;;;;;8.07;5.60;;;6.60;79.30;;;;;;6094580;23;20010;-75
2024/01/19 07:15:13;;;;;;;7.93;5.50;;;6.60;79.10;;;;;;6068096;23;20025;-75
2024/01/19 07:17:39;;;;;;;7.50;5.18;;;6.60;78.90;;;;;;6094299;23;20031;-75
2024/01/19 07:20:06;;;;;;;7.85;5.18;;;6.60;78.80;;;;;;6068827;23;20027;-76
2024/01/19 07:22:33;;;;;;;8.65;5.63;;;6.60;78.70;;;;;;6093566;23;20019;-75
2024/01/19 07:24:59;;;;;;;9.55;5.97;;;6.60;78.70;;;;;;6093677;23;20029;-75
2024/01/19 07:27:25;;;;;;;7.97;4.70;;;6.60;78.60;;;;;;6093884;23;20026;-75
2024/01/19 07:29:51;;;;;;;6.85;5.28;;;6.60;78.50;;;;;;6094144;23;20025;-75
2024/01/19 07:32:19;;;;;;;6.00;5.38;;;6.60;78.40;;;;;;6093973;23;20431;-75
2024/01/19 07:34:45;;;;;;;7.55;4.82;;;6.60;78.30;;;;;;6094142;23;20435;-76
2024/01/19 07:37:11;;;;;;;7.05;5.47;;;6.60;78.20;;;;;;6092437;23;20046;-75
2024/01/19 07:39:37;;;;;;;7.65;5.68;;;6.60;78.00;;;;;;6068513;23;20073;-74
2024/01/19 07:42:04;;;;;;;7.93;5.07;;;6.60;77.90;;;;;;6093932;23;20018;-76
2024/01/19 07:44:30;;;;;;;8.05;5.20;;;6.60;77.90;;;;;;6067535;23;20102;-76
2024/01/19 07:46:56;;;;;;;6.47;4.72;;;6.60;77.90;;;;;;6065032;23;20082;-77
2024/01/19 07:49:22;;;;;;;7.30;5.10;;;6.60;77.80;;;;;;6091738;23;20044;-76
2024/01/19 07:51:49;;;;;;;8.02;5.50;;;6.60;77.80;;;;;;6090650;23;20006;-76
2024/01/19 07:54:16;;;;;;;8.80;5.32;;;6.70;78.00;;;;;;6091713;23;20076;-76
2024/01/19 07:56:42;;;;;;;6.85;5.00;;;6.60;77.90;;;;;;6089328;23;20080;-76
2024/01/19 07:59:08;;;;;;;6.88;4.82;;;6.70;78.00;;;;;;6041268;23;20469;-76
2024/01/19 08:01:34;;;;;;;6.47;4.82;;;6.70;78.00;;;;;;6064068;23;20013;-76
2024/01/19 08:04:00;;;;;;;5.93;4.55;;;6.70;77.90;;;;;;6090273;23;20089;-74
2024/01/19 08:06:26;;;;;;;7.45;4.85;;;6.70;77.90;;;;;;6065171;23;20026;-74
2024/01/19 08:08:52;;;;;;;8.40;4.15;;;6.70;77.90;;;;;;6042224;23;20022;-74
2024/01/19 08:11:18;;;;;;;6.32;4.72;;;6.70;77.80;;;;;;6089011;23;20081;-75
2024/01/19 08:13:44;;;;;;;6.22;4.45;;;6.70;77.70;;;;;;6041520;23;20034;-75
2024/01/19 08:16:11;;;;;;;6.18;4.50;;;6.70;77.60;;;;;;6091732;23;20504;-75
2024/01/19 08:18:37;;;;;;;6.15;4.40;;;6.70;77.50;;;;;;6090193;23;20050;-74
2024/01/19 08:21:04;;;;;;;6.22;4.05;;;6.80;77.60;;;;;;6091598;23;20347;-75
2024/01/19 08:23:30;;;;;;;5.82;4.45;;;6.80;77.40;;;;;;6090724;23;20022;-75
2024/01/19 08:25:56;;;;;;;7.20;4.15;;;6.80;77.40;;;;;;6089435;23;20510;-75
2024/01/19 08:28:23;;;;;;;6.15;4.63;;;6.80;77.20;;;;;;6064984;23;20052;-75
2024/01/19 08:30:49;;;;;;;5.43;3.85;;;6.80;77.20;;;;;;6092064;23;20087;-76
2024/01/19 08:33:15;;;;;;;5.95;4.40;;;6.70;77.00;;;;;;6090961;23;20054;-78
2024/01/19 08:35:42;;;;;;;7.15;4.00;;;6.80;77.00;;;;;;6090886;23;20044;-75
2024/01/19 08:38:08;;;;;;;6.43;4.30;;;6.80;77.00;;;;;;6090482;23;20469;-75
2024/01/19 08:40:34;;;;;;;5.90;4.32;;;6.80;77.00;;;;;;6089232;23;20556;-75
2024/01/19 08:43:00;;;;;;;7.13;4.85;;;6.80;76.90;;;;;;6091355;23;20025;-76
2024/01/19 08:45:29;;;;;;;6.63;4.10;;;6.80;76.80;;;;;;6090834;23;20029;-75
2024/01/19 08:47:58;;;;;;;7.15;4.70;;;6.80;76.70;;;;;;6064161;23;20465;-74
2024/01/19 08:50:28;;;;;;;5.05;4.05;;;6.80;76.70;;;;;;6089079;23;20073;-76
2024/01/19 08:52:54;;;;;;;5.40;4.10;;;6.80;76.70;;;;;;6065153;23;20646;-76
2024/01/19 08:55:20;;;;;;;6.20;4.22;;;6.80;76.60;;;;;;6089501;23;20100;-76
2024/01/19 08:57:46;;;;;;;5.93;4.10;;;6.80;76.70;;;;;;6089572;23;20025;-76
2024/01/19 09:00:13;;;;;;;4.93;4.18;;;6.80;76.70;;;;;;6062241;23;20029;-75
2024/01/19 09:02:39;;;;;;;7.00;4.15;;;6.90;76.80;;;;;;6040557;23;20092;-75
2024/01/19 09:05:09;;;;;;;5.70;4.18;;;6.90;76.70;;;;;;6090066;23;20394;-76
2024/01/19 09:07:43;;;;;;;5.22;4.32;;;6.90;76.60;;;;;;6089666;23;20018;-75
2024/01/19 09:10:10;;;;;;;7.10;4.15;;;6.90;76.60;;;;;;6016044;23;20020;-76
2024/01/19 09:12:36;;;;;;;5.30;4.03;;;6.90;76.40;;;;;;6040198;23;20022;-75
2024/01/19 09:15:03;;;;;;;4.90;3.92;;;6.90;76.50;;;;;;6040622;23;20109;-75
2024/01/19 09:17:30;;;;;;;4.82;4.07;;;6.90;76.30;;;;;;6064758;23;20402;-75
2024/01/19 09:20:05;;;;;;;6.78;4.70;;;6.90;76.30;;;;;;6064308;23;20629;-75
2024/01/19 09:22:32;;;;;;;4.50;3.72;;;6.90;76.20;;;;;;6063557;23;20037;-76
2024/01/19 09:24:58;;;;;;;6.88;4.30;;;6.90;76.20;;;;;;6041136;23;20041;-74
2024/01/19 09:27:24;;;;;;;5.55;4.05;;;6.90;76.10;;;;;;6088682;23;20019;-75
2024/01/19 09:29:53;;;;;;;6.07;3.97;;;6.90;76.00;;;;;;6064142;23;20093;-74
2024/01/19 09:32:19;;;;;;;5.55;4.25;;;6.90;75.90;;;;;;6064027;23;20014;-75
2024/01/19 09:34:45;;;;;;;6.47;4.40;;;7.00;76.00;;;;;;6016819;23;20014;-75
2024/01/19 09:37:12;;;;;;;6.00;4.22;;;7.00;75.90;;;;;;6088551;23;20073;-75
2024/01/19 09:39:38;;;;;;;7.40;4.20;;;7.00;75.80;;;;;;6064509;23;20025;-76
2024/01/19 09:42:09;;;;;;;8.32;4.30;;;7.00;75.70;;;;;;6066972;23;20018;-75
2024/01/19 09:44:36;;;;;;;5.88;4.47;;;7.00;75.60;;;;;;6018708;23;20466;-76
2024/01/19 09:47:28;;;;;;;5.60;3.72;;;7.00;75.50;;;;;;6092378;23;20022;-74
2024/01/19 09:50:04;;;;;;;4.75;3.60;;;7.00;75.40;;;;;;5951485;24;20661;-77
2024/01/19 09:52:57;;;;;;;5.03;3.78;;;6.90;75.30;;;;;;5975018;23;20068;-77
2024/01/19 09:55:26;;;;;;;5.82;4.03;;;7.00;75.30;;;;;;5906473;23;20004;-76
2024/01/19 09:57:52;;;;;;;5.40;4.20;;;7.00;75.30;;;;;;5975775;24;20086;-76
2024/01/19 10:00:19;;;;;;;7.30;3.78;;;7.00;75.30;;;;;;5974678;23;20024;-76
2024/01/19 10:02:46;;;;;;;6.00;4.20;;;7.00;75.30;;;;;;5951601;24;20051;-77
2024/01/19 10:05:14;;;;;;;5.95;4.38;;;7.00;75.20;;;;;;5975031;23;20064;-76
2024/01/19 10:07:44;;;;;;;6.28;3.92;;;7.10;75.20;;;;;;5929167;23;20038;-76
2024/01/19 10:10:11;;;;;;;6.18;4.32;;;7.10;75.10;;;;;;5976225;24;20012;-75
2024/01/19 10:12:38;;;;;;;7.25;4.50;;;7.10;75.20;;;;;;5951497;23;20089;-76
2024/01/19 10:15:09;;;;;;;6.32;4.45;;;7.10;75.80;;;;;;5952137;24;20020;-76
2024/01/19 10:17:38;;;;;;;5.05;4.10;;;7.10;75.20;;;;;;5974356;23;20124;-75
2024/01/19 10:20:06;;;;;;;6.22;3.90;;;7.10;75.10;;;;;;5951943;24;20030;-76
2024/01/19 10:22:35;;;;;;;6.05;4.07;;;7.10;75.00;;;;;;5974641;23;20020;-76
2024/01/19 10:25:09;;;;;;;6.10;3.45;;;7.10;74.90;;;;;;5975727;24;20072;-76
2024/01/19 10:27:46;;;;;;;5.20;3.60;;;7.10;74.80;;;;;;6050178;23;20022;-75
2024/01/19 10:30:17;;;;;;;5.93;3.72;;;7.10;74.80;;;;;;6029806;23;20105;-75
2024/01/19 10:32:49;;;;;;;4.43;3.60;;;7.10;74.70;;;;;;6091604;23;20042;-76
2024/01/19 10:35:23;;;;;;;5.38;3.90;;;7.10;74.60;;;;;;6044505;23;20022;-75
2024/01/19 10:37:50;;;;;;;6.22;4.00;;;7.10;74.40;;;;;;6044906;23;20026;-75
2024/01/19 10:40:26;;;;;;;6.25;4.10;;;7.20;74.30;;;;;;6068656;23;20014;-76
2024/01/19 10:42:58;;;;;;;6.57;3.90;;;7.10;74.20;;;;;;6093931;23;20541;-75
2024/01/19 10:45:29;;;;;;;5.60;3.90;;;7.20;74.20;;;;;;6093401;23;20028;-75
2024/01/19 10:47:58;;;;;;;5.43;4.20;;;7.20;74.80;;;;;;6020733;23;20039;-74
2024/01/19 10:50:26;;;;;;;5.38;3.70;;;7.20;74.10;;;;;;6043900;23;20029;-76
2024/01/19 10:52:54;;;;;;;6.07;4.78;;;7.20;74.00;;;;;;6067630;23;20018;-77
2024/01/19 10:55:22;;;;;;;6.03;4.45;;;7.20;74.00;;;;;;6066453;23;20018;-76
2024/01/19 10:58:11;;;;;;;5.97;4.00;;;7.20;73.90;;;;;;6042524;23;20015;-76
2024/01/19 11:00:38;;;;;;;6.55;4.65;;;7.20;74.00;;;;;;6041129;23;20118;-75
2024/01/19 11:03:05;;;;;;;5.93;3.95;;;7.20;74.00;;;;;;6017440;23;20019;-76
2024/01/19 11:05:32;;;;;;;7.20;4.45;;;7.30;74.10;;;;;;6017201;23;20030;-77
2024/01/19 11:08:00;;;;;;;4.72;3.70;;;7.30;74.10;;;;;;6041333;23;20025;-76
2024/01/19 11:10:28;;;;;;;6.22;4.10;;;7.30;74.00;;;;;;6017094;23;20056;-76
2024/01/19 11:13:01;;;;;;;5.55;4.00;;;7.20;74.00;;;;;;6042227;23;20098;-76
2024/01/19 11:15:39;;;;;;;7.20;4.18;;;7.20;74.10;;;;;;6065987;23;20105;-76
2024/01/19 11:18:06;;;;;;;9.20;4.22;;;7.30;74.10;;;;;;6040003;23;20065;-77
2024/01/19 11:20:33;;;;;;;6.78;4.32;;;7.30;74.20;;;;;;6017585;23;20026;-76
2024/01/19 11:23:04;;;;;;;6.05;3.72;;;7.30;74.00;;;;;;6017697;23;20022;-76
2024/01/19 11:26:01;;;;;;;7.78;4.47;;;7.30;74.00;;;;;;6065048;23;20018;-75
2024/01/19 11:29:01;;;;;;;6.90;4.47;;;7.30;73.80;;;;;;6003466;23;20011;-76
2024/01/19 11:31:34;;;;;;;6.70;4.05;;;7.30;73.70;;;;;;6011233;23;20099;-76
2024/01/19 11:34:02;;;;;;;6.47;4.07;;;7.30;73.70;;;;;;6010860;23;20011;-76
2024/01/19 11:36:46;;;;;;;8.02;4.15;;;7.20;73.60;;;;;;6034534;23;20027;-75
2024/01/19 11:39:44;;;;;;;6.05;3.90;;;7.30;73.60;;;;;;6034959;23;20023;-76
2024/01/19 11:42:49;;;;;;;5.75;3.78;;;7.30;73.30;;;;;;6011293;23;20757;-75
2024/01/19 11:45:28;;;;;;;10.65;4.30;;;7.30;73.30;;;;;;6033337;23;20533;-75
2024/01/19 11:47:54;;;;;;;5.55;3.70;;;7.30;73.10;;;;;;6012854;23;20517;-76
2024/01/19 11:50:45;;;;;;;6.38;4.18;;;7.20;73.10;;;;;;6060203;23;20382;-75
2024/01/19 11:53:12;;;;;;;6.05;4.05;;;7.30;73.10;;;;;;6011422;23;20010;-76
2024/01/19 11:55:39;;;;;;;7.60;4.32;;;7.30;72.90;;;;;;6010139;23;20067;-75
2024/01/19 11:58:25;;;;;;;7.15;4.60;;;7.30;72.80;;;;;;6011615;23;20015;-75
2024/01/19 12:00:54;;;;;;;7.40;4.25;;;7.30;73.10;;;;;;6034809;23;20015;-75
2024/01/19 12:03:21;;;;;;;6.07;4.10;;;7.30;72.70;;;;;;6034960;23;20105;-76
2024/01/19 12:05:48;;;;;;;6.82;4.78;;;7.30;72.50;;;;;;6033903;23;20028;-76
2024/01/19 12:08:14;;;;;;;6.32;4.35;;;7.30;72.40;;;;;;6050025;23;20094;-74
2024/01/19 12:10:42;;;;;;;6.45;4.15;;;7.30;72.50;;;;;;6067128;23;20044;-76
2024/01/19 12:13:09;;;;;;;6.25;4.50;;;7.30;72.40;;;;;;6094115;23;20458;-77
2024/01/19 12:15:35;;;;;;;5.82;4.57;;;7.30;72.50;;;;;;6043094;23;20022;-75
2024/01/19 12:18:04;;;;;;;8.05;5.00;;;7.30;72.60;;;;;;6020138;23;20113;-76
2024/01/19 12:20:31;;;;;;;9.73;5.30;;;7.30;72.50;;;;;;6043763;23;20368;-76
2024/01/19 12:22:57;;;;;;;8.60;4.97;;;7.30;72.50;;;;;;6019997;23;20018;-77
2024/01/19 12:25:25;;;;;;;6.40;4.82;;;7.30;72.50;;;;;;6066818;23;20030;-76
2024/01/19 12:28:05;;;;;;;6.18;4.45;;;7.30;72.50;;;;;;6093875;23;20077;-78
2024/01/19 12:30:33;;;;;;;6.28;5.00;;;7.30;72.60;;;;;;6019948;23;20026;-77
2024/01/19 12:33:16;;;;;;;6.88;4.55;;;7.30;72.50;;;;;;6020411;23;20022;-76
2024/01/19 12:35:45;;;;;;;9.77;5.32;;;7.30;72.30;;;;;;6043047;23;20097;-76
2024/01/19 12:38:12;;;;;;;6.78;4.95;;;7.30;72.30;;;;;;6067660;23;20504;-77
2024/01/19 12:40:43;;;;;;;7.03;4.75;;;7.30;72.30;;;;;;6043342;23;20024;-77
2024/01/19 12:43:09;;;;;;;6.93;4.35;;;7.30;72.30;;;;;;6068265;23;20049;-76
2024/01/19 12:45:36;;;;;;;7.55;4.93;;;7.20;72.20;;;;;;6042592;23;20022;-75
2024/01/19 12:48:02;;;;;;;6.43;4.10;;;7.30;72.10;;;;;;6019536;23;20101;-77
2024/01/19 12:50:29;;;;;;;7.38;4.47;;;7.20;72.00;;;;;;6043214;23;20081;-77
2024/01/19 12:52:55;;;;;;;5.55;4.10;;;7.20;72.00;;;;;;6067166;23;20026;-77
2024/01/19 12:55:32;;;;;;;8.32;4.93;;;7.20;72.00;;;;;;6066794;23;20010;-76
2024/01/19 12:57:59;;;;;;;7.32;4.47;;;7.20;71.90;;;;;;6067026;23;20014;-77
2024/01/19 13:00:33;;;;;;;7.05;4.55;;;7.20;71.80;;;;;;6019431;23;20023;-77